sensor_id;sensor_type;location;lat;lon;timestamp;P1;durP1;ratioP1;P2;durP2;ratioP2
19554;SDS011;9924;50.828;6.440;2022-08-11T00:02:34;6.72;;;2.65;;
19554;SDS011;9924;50.828;6.440;2022-08-11T00:05:08;5.85;;;2.63;;
19554;SDS011;9924;50.828;6.440;2022-08-11T00:10:13;4.53;;;2.83;;
19554;SDS011;9924;50.828;6.440;2022-08-11T00:12:42;3.55;;;2.80;;
19554;SDS011;9924;50.828;6.440;2022-08-11T00:15:14;5.72;;;2.53;;
19554;SDS011;9924;50.828;6.440;2022-08-11T00:17:40;4.43;;;2.72;;
19554;SDS011;9924;50.828;6.440;2022-08-11T00:20:09;4.20;;;2.63;;
19554;SDS011;9924;50.828;6.440;2022-08-11T00:22:38;6.95;;;3.22;;
19554;SDS011;9924;50.828;6.440;2022-08-11T00:25:17;3.83;;;3.13;;
19554;SDS011;9924;50.828;6.440;2022-08-11T00:27:45;7.82;;;2.90;;
19554;SDS011;9924;50.828;6.440;2022-08-11T00:30:14;4.97;;;2.80;;
19554;SDS011;9924;50.828;6.440;2022-08-11T00:32:41;5.53;;;2.90;;
19554;SDS011;9924;50.828;6.440;2022-08-11T00:35:13;3.95;;;2.85;;
19554;SDS011;9924;50.828;6.440;2022-08-11T00:37:43;3.38;;;2.70;;
19554;SDS011;9924;50.828;6.440;2022-08-11T00:40:15;7.97;;;3.22;;
19554;SDS011;9924;50.828;6.440;2022-08-11T00:42:54;7.68;;;3.00;;
19554;SDS011;9924;50.828;6.440;2022-08-11T00:45:39;4.85;;;3.53;;
19554;SDS011;9924;50.828;6.440;2022-08-11T00:48:14;5.00;;;3.30;;
19554;SDS011;9924;50.828;6.440;2022-08-11T01:10:22;4.72;;;2.75;;
19554;SDS011;9924;50.828;6.440;2022-08-11T01:42:18;4.40;;;3.45;;
19554;SDS011;9924;50.828;6.440;2022-08-11T01:45:29;3.97;;;3.58;;
19554;SDS011;9924;50.828;6.440;2022-08-11T01:59:35;7.93;;;3.70;;
19554;SDS011;9924;50.828;6.440;2022-08-11T02:08:07;4.88;;;3.70;;
19554;SDS011;9924;50.828;6.440;2022-08-11T02:10:51;5.57;;;4.00;;
19554;SDS011;9924;50.828;6.440;2022-08-11T02:13:44;5.60;;;3.58;;
19554;SDS011;9924;50.828;6.440;2022-08-11T02:22:02;5.28;;;3.53;;
19554;SDS011;9924;50.828;6.440;2022-08-11T02:24:58;5.93;;;3.50;;
19554;SDS011;9924;50.828;6.440;2022-08-11T02:27:41;4.68;;;3.88;;
19554;SDS011;9924;50.828;6.440;2022-08-11T02:30:15;5.13;;;3.67;;
19554;SDS011;9924;50.828;6.440;2022-08-11T02:35:38;4.68;;;3.78;;
19554;SDS011;9924;50.828;6.440;2022-08-11T02:44:31;5.78;;;3.80;;
19554;SDS011;9924;50.828;6.440;2022-08-11T02:47:08;5.32;;;3.25;;
19554;SDS011;9924;50.828;6.440;2022-08-11T02:50:04;5.85;;;4.10;;
19554;SDS011;9924;50.828;6.440;2022-08-11T02:52:54;6.22;;;4.18;;
19554;SDS011;9924;50.828;6.440;2022-08-11T02:55:32;6.50;;;3.88;;
19554;SDS011;9924;50.828;6.440;2022-08-11T02:58:09;7.10;;;4.40;;
19554;SDS011;9924;50.828;6.440;2022-08-11T03:03:29;5.05;;;3.72;;
19554;SDS011;9924;50.828;6.440;2022-08-11T03:06:13;7.05;;;4.07;;
19554;SDS011;9924;50.828;6.440;2022-08-11T03:20:44;6.97;;;3.45;;
19554;SDS011;9924;50.828;6.440;2022-08-11T03:25:54;5.93;;;4.13;;
19554;SDS011;9924;50.828;6.440;2022-08-11T03:28:31;10.55;;;4.82;;
19554;SDS011;9924;50.828;6.440;2022-08-11T03:33:34;7.35;;;4.28;;
19554;SDS011;9924;50.828;6.440;2022-08-11T03:59:41;6.93;;;4.90;;
19554;SDS011;9924;50.828;6.440;2022-08-11T04:08:22;8.25;;;4.28;;
19554;SDS011;9924;50.828;6.440;2022-08-11T04:29:16;14.45;;;4.68;;
19554;SDS011;9924;50.828;6.440;2022-08-11T04:52:46;9.93;;;5.47;;
19554;SDS011;9924;50.828;6.440;2022-08-11T04:56:05;10.40;;;5.22;;
19554;SDS011;9924;50.828;6.440;2022-08-11T05:11:29;13.48;;;5.07;;
19554;SDS011;9924;50.828;6.440;2022-08-11T05:16:58;9.52;;;4.93;;
19554;SDS011;9924;50.828;6.440;2022-08-11T05:19:49;9.25;;;5.15;;
19554;SDS011;9924;50.828;6.440;2022-08-11T05:22:33;10.27;;;5.38;;
19554;SDS011;9924;50.828;6.440;2022-08-11T05:25:19;9.57;;;5.88;;
19554;SDS011;9924;50.828;6.440;2022-08-11T05:28:11;14.10;;;7.03;;
19554;SDS011;9924;50.828;6.440;2022-08-11T05:31:08;10.35;;;6.60;;
19554;SDS011;9924;50.828;6.440;2022-08-11T05:33:58;12.73;;;6.30;;
19554;SDS011;9924;50.828;6.440;2022-08-11T05:36:54;9.25;;;6.05;;
19554;SDS011;9924;50.828;6.440;2022-08-11T05:39:29;8.05;;;5.70;;
19554;SDS011;9924;50.828;6.440;2022-08-11T05:42:16;10.18;;;5.93;;
19554;SDS011;9924;50.828;6.440;2022-08-11T05:45:08;8.00;;;5.53;;
19554;SDS011;9924;50.828;6.440;2022-08-11T05:47:56;6.95;;;4.55;;
19554;SDS011;9924;50.828;6.440;2022-08-11T05:50:43;6.20;;;4.15;;
19554;SDS011;9924;50.828;6.440;2022-08-11T05:54:10;4.82;;;3.50;;
19554;SDS011;9924;50.828;6.440;2022-08-11T05:56:53;5.28;;;3.53;;
19554;SDS011;9924;50.828;6.440;2022-08-11T05:59:23;5.97;;;3.75;;
19554;SDS011;9924;50.828;6.440;2022-08-11T06:01:51;7.43;;;4.22;;
19554;SDS011;9924;50.828;6.440;2022-08-11T06:04:21;7.22;;;4.85;;
19554;SDS011;9924;50.828;6.440;2022-08-11T06:06:58;13.80;;;5.65;;
19554;SDS011;9924;50.828;6.440;2022-08-11T06:12:04;5.45;;;3.80;;
19554;SDS011;9924;50.828;6.440;2022-08-11T06:14:33;7.57;;;4.03;;
19554;SDS011;9924;50.828;6.440;2022-08-11T06:17:05;5.90;;;3.33;;
19554;SDS011;9924;50.828;6.440;2022-08-11T06:19:37;5.85;;;3.65;;
19554;SDS011;9924;50.828;6.440;2022-08-11T06:22:05;5.25;;;3.65;;
19554;SDS011;9924;50.828;6.440;2022-08-11T06:24:35;5.03;;;3.50;;
19554;SDS011;9924;50.828;6.440;2022-08-11T06:27:04;6.25;;;3.55;;
19554;SDS011;9924;50.828;6.440;2022-08-11T06:29:32;7.50;;;3.78;;
19554;SDS011;9924;50.828;6.440;2022-08-11T06:32:05;5.00;;;3.17;;
19554;SDS011;9924;50.828;6.440;2022-08-11T06:37:15;6.03;;;3.55;;
19554;SDS011;9924;50.828;6.440;2022-08-11T06:42:33;7.85;;;3.42;;
19554;SDS011;9924;50.828;6.440;2022-08-11T06:45:22;9.32;;;3.88;;
19554;SDS011;9924;50.828;6.440;2022-08-11T06:47:59;5.88;;;3.17;;
19554;SDS011;9924;50.828;6.440;2022-08-11T06:50:27;5.45;;;3.28;;
19554;SDS011;9924;50.828;6.440;2022-08-11T06:53:14;8.10;;;3.08;;
19554;SDS011;9924;50.828;6.440;2022-08-11T06:55:42;6.82;;;2.45;;
19554;SDS011;9924;50.828;6.440;2022-08-11T06:58:35;3.80;;;2.90;;
19554;SDS011;9924;50.828;6.440;2022-08-11T07:07:21;5.38;;;2.80;;
19554;SDS011;9924;50.828;6.440;2022-08-11T07:13:47;4.15;;;2.50;;
19554;SDS011;9924;50.828;6.440;2022-08-11T07:16:35;3.63;;;2.38;;
19554;SDS011;9924;50.828;6.440;2022-08-11T07:19:06;5.85;;;2.55;;
19554;SDS011;9924;50.828;6.440;2022-08-11T07:21:52;2.50;;;2.30;;
19554;SDS011;9924;50.828;6.440;2022-08-11T07:25:12;9.05;;;2.72;;
19554;SDS011;9924;50.828;6.440;2022-08-11T07:28:02;3.38;;;2.60;;
19554;SDS011;9924;50.828;6.440;2022-08-11T07:31:01;4.82;;;2.50;;
19554;SDS011;9924;50.828;6.440;2022-08-11T07:33:39;6.45;;;2.40;;
19554;SDS011;9924;50.828;6.440;2022-08-11T07:36:29;3.55;;;2.40;;
19554;SDS011;9924;50.828;6.440;2022-08-11T07:38:56;6.45;;;3.15;;
19554;SDS011;9924;50.828;6.440;2022-08-11T07:41:23;6.07;;;2.45;;
19554;SDS011;9924;50.828;6.440;2022-08-11T07:43:53;3.47;;;2.60;;
19554;SDS011;9924;50.828;6.440;2022-08-11T07:46:34;5.10;;;2.97;;
19554;SDS011;9924;50.828;6.440;2022-08-11T07:49:24;4.65;;;2.60;;
19554;SDS011;9924;50.828;6.440;2022-08-11T07:52:10;3.20;;;2.60;;
19554;SDS011;9924;50.828;6.440;2022-08-11T07:55:04;4.68;;;2.88;;
19554;SDS011;9924;50.828;6.440;2022-08-11T07:57:38;4.80;;;3.13;;
19554;SDS011;9924;50.828;6.440;2022-08-11T08:00:23;5.72;;;2.83;;
19554;SDS011;9924;50.828;6.440;2022-08-11T08:03:09;5.28;;;2.53;;
19554;SDS011;9924;50.828;6.440;2022-08-11T08:05:53;5.13;;;2.60;;
19554;SDS011;9924;50.828;6.440;2022-08-11T08:08:39;3.42;;;2.40;;
19554;SDS011;9924;50.828;6.440;2022-08-11T08:11:24;4.20;;;2.60;;
19554;SDS011;9924;50.828;6.440;2022-08-11T08:14:09;6.63;;;2.80;;
19554;SDS011;9924;50.828;6.440;2022-08-11T08:16:55;5.20;;;2.63;;
19554;SDS011;9924;50.828;6.440;2022-08-11T08:19:45;5.43;;;2.35;;
19554;SDS011;9924;50.828;6.440;2022-08-11T08:22:15;6.68;;;2.35;;
19554;SDS011;9924;50.828;6.440;2022-08-11T08:24:44;4.25;;;2.10;;
19554;SDS011;9924;50.828;6.440;2022-08-11T08:27:11;6.57;;;2.53;;
19554;SDS011;9924;50.828;6.440;2022-08-11T08:29:38;3.05;;;2.35;;
19554;SDS011;9924;50.828;6.440;2022-08-11T08:32:23;5.63;;;2.80;;
19554;SDS011;9924;50.828;6.440;2022-08-11T08:34:52;8.30;;;3.97;;
19554;SDS011;9924;50.828;6.440;2022-08-11T08:37:20;6.60;;;2.42;;
19554;SDS011;9924;50.828;6.440;2022-08-11T08:39:48;2.78;;;2.00;;
19554;SDS011;9924;50.828;6.440;2022-08-11T08:42:17;2.97;;;2.40;;
19554;SDS011;9924;50.828;6.440;2022-08-11T08:44:49;6.10;;;2.17;;
19554;SDS011;9924;50.828;6.440;2022-08-11T08:47:20;6.30;;;2.72;;
19554;SDS011;9924;50.828;6.440;2022-08-11T08:49:49;6.05;;;2.40;;
19554;SDS011;9924;50.828;6.440;2022-08-11T08:52:21;4.05;;;2.13;;
19554;SDS011;9924;50.828;6.440;2022-08-11T08:54:50;6.13;;;3.03;;
19554;SDS011;9924;50.828;6.440;2022-08-11T08:57:18;4.28;;;2.03;;
19554;SDS011;9924;50.828;6.440;2022-08-11T08:59:51;5.60;;;2.40;;
19554;SDS011;9924;50.828;6.440;2022-08-11T09:02:19;18.55;;;3.13;;
19554;SDS011;9924;50.828;6.440;2022-08-11T09:04:49;5.05;;;2.40;;
19554;SDS011;9924;50.828;6.440;2022-08-11T09:07:15;4.88;;;2.33;;
19554;SDS011;9924;50.828;6.440;2022-08-11T09:09:52;6.35;;;2.60;;
19554;SDS011;9924;50.828;6.440;2022-08-11T09:12:21;3.40;;;2.25;;
19554;SDS011;9924;50.828;6.440;2022-08-11T09:14:51;4.40;;;2.50;;
19554;SDS011;9924;50.828;6.440;2022-08-11T09:17:25;3.08;;;2.20;;
19554;SDS011;9924;50.828;6.440;2022-08-11T09:20:14;4.95;;;2.17;;
19554;SDS011;9924;50.828;6.440;2022-08-11T09:22:44;2.70;;;2.20;;
19554;SDS011;9924;50.828;6.440;2022-08-11T09:25:30;3.20;;;1.90;;
19554;SDS011;9924;50.828;6.440;2022-08-11T09:28:16;7.57;;;2.25;;
19554;SDS011;9924;50.828;6.440;2022-08-11T09:30:45;7.78;;;3.28;;
19554;SDS011;9924;50.828;6.440;2022-08-11T09:33:17;4.63;;;2.10;;
19554;SDS011;9924;50.828;6.440;2022-08-11T09:35:45;4.97;;;2.40;;
19554;SDS011;9924;50.828;6.440;2022-08-11T09:38:13;2.72;;;2.00;;
19554;SDS011;9924;50.828;6.440;2022-08-11T09:41:00;6.53;;;1.90;;
19554;SDS011;9924;50.828;6.440;2022-08-11T09:43:29;5.75;;;2.15;;
19554;SDS011;9924;50.828;6.440;2022-08-11T09:46:15;3.47;;;1.88;;
19554;SDS011;9924;50.828;6.440;2022-08-11T09:48:46;3.47;;;1.90;;
19554;SDS011;9924;50.828;6.440;2022-08-11T09:51:12;4.30;;;1.50;;
19554;SDS011;9924;50.828;6.440;2022-08-11T09:53:40;2.75;;;1.77;;
19554;SDS011;9924;50.828;6.440;2022-08-11T09:56:17;2.40;;;1.70;;
19554;SDS011;9924;50.828;6.440;2022-08-11T09:59:04;3.47;;;1.90;;
19554;SDS011;9924;50.828;6.440;2022-08-11T10:01:33;5.10;;;2.03;;
19554;SDS011;9924;50.828;6.440;2022-08-11T10:04:16;2.38;;;1.85;;
19554;SDS011;9924;50.828;6.440;2022-08-11T10:06:51;3.67;;;1.80;;
19554;SDS011;9924;50.828;6.440;2022-08-11T10:09:28;3.60;;;1.92;;
19554;SDS011;9924;50.828;6.440;2022-08-11T10:12:05;1.90;;;1.75;;
19554;SDS011;9924;50.828;6.440;2022-08-11T10:14:33;4.07;;;1.70;;
19554;SDS011;9924;50.828;6.440;2022-08-11T10:17:24;4.78;;;2.00;;
19554;SDS011;9924;50.828;6.440;2022-08-11T10:19:50;4.72;;;2.75;;
19554;SDS011;9924;50.828;6.440;2022-08-11T10:22:21;4.68;;;2.05;;
19554;SDS011;9924;50.828;6.440;2022-08-11T10:25:06;2.90;;;1.60;;
19554;SDS011;9924;50.828;6.440;2022-08-11T10:27:51;3.28;;;1.92;;
19554;SDS011;9924;50.828;6.440;2022-08-11T10:30:25;8.23;;;2.67;;
19554;SDS011;9924;50.828;6.440;2022-08-11T10:33:11;4.55;;;2.28;;
19554;SDS011;9924;50.828;6.440;2022-08-11T10:35:57;3.45;;;2.10;;
19554;SDS011;9924;50.828;6.440;2022-08-11T10:38:26;3.42;;;2.00;;
19554;SDS011;9924;50.828;6.440;2022-08-11T10:40:54;4.78;;;2.00;;
19554;SDS011;9924;50.828;6.440;2022-08-11T10:43:38;4.38;;;2.33;;
19554;SDS011;9924;50.828;6.440;2022-08-11T10:46:10;3.40;;;1.85;;
19554;SDS011;9924;50.828;6.440;2022-08-11T10:48:56;4.50;;;2.10;;
19554;SDS011;9924;50.828;6.440;2022-08-11T10:51:26;2.33;;;1.90;;
19554;SDS011;9924;50.828;6.440;2022-08-11T10:54:10;4.55;;;2.17;;
19554;SDS011;9924;50.828;6.440;2022-08-11T10:56:57;2.90;;;2.22;;
19554;SDS011;9924;50.828;6.440;2022-08-11T10:59:42;9.57;;;2.03;;
19554;SDS011;9924;50.828;6.440;2022-08-11T11:02:14;3.55;;;2.28;;
19554;SDS011;9924;50.828;6.440;2022-08-11T11:05:01;3.97;;;1.90;;
19554;SDS011;9924;50.828;6.440;2022-08-11T11:10:14;7.07;;;1.98;;
19554;SDS011;9924;50.828;6.440;2022-08-11T11:12:41;3.13;;;1.98;;
19554;SDS011;9924;50.828;6.440;2022-08-11T11:15:29;4.05;;;2.20;;
19554;SDS011;9924;50.828;6.440;2022-08-11T11:18:23;4.00;;;2.30;;
19554;SDS011;9924;50.828;6.440;2022-08-11T11:23:28;3.33;;;2.00;;
19554;SDS011;9924;50.828;6.440;2022-08-11T11:34:42;3.95;;;2.17;;
19554;SDS011;9924;50.828;6.440;2022-08-11T11:37:28;2.88;;;1.98;;
19554;SDS011;9924;50.828;6.440;2022-08-11T11:39:57;5.25;;;2.22;;
19554;SDS011;9924;50.828;6.440;2022-08-11T11:42:24;5.90;;;2.45;;
19554;SDS011;9924;50.828;6.440;2022-08-11T11:44:51;3.55;;;2.13;;
19554;SDS011;9924;50.828;6.440;2022-08-11T11:47:18;5.18;;;2.38;;
19554;SDS011;9924;50.828;6.440;2022-08-11T11:49:46;3.95;;;2.25;;
19554;SDS011;9924;50.828;6.440;2022-08-11T11:52:17;3.38;;;2.15;;
19554;SDS011;9924;50.828;6.440;2022-08-11T11:54:49;3.05;;;2.25;;
19554;SDS011;9924;50.828;6.440;2022-08-11T11:57:19;3.03;;;2.00;;
19554;SDS011;9924;50.828;6.440;2022-08-11T12:00:05;5.57;;;2.40;;
19554;SDS011;9924;50.828;6.440;2022-08-11T12:02:52;3.90;;;2.17;;
19554;SDS011;9924;50.828;6.440;2022-08-11T12:05:22;2.67;;;2.10;;
19554;SDS011;9924;50.828;6.440;2022-08-11T12:07:49;7.25;;;2.50;;
19554;SDS011;9924;50.828;6.440;2022-08-11T12:10:34;3.13;;;2.20;;
19554;SDS011;9924;50.828;6.440;2022-08-11T12:13:00;4.63;;;2.60;;
19554;SDS011;9924;50.828;6.440;2022-08-11T12:15:45;4.65;;;1.98;;
19554;SDS011;9924;50.828;6.440;2022-08-11T12:18:12;4.50;;;2.50;;
19554;SDS011;9924;50.828;6.440;2022-08-11T12:20:40;2.70;;;2.10;;
19554;SDS011;9924;50.828;6.440;2022-08-11T12:23:08;4.97;;;2.72;;
19554;SDS011;9924;50.828;6.440;2022-08-11T12:25:54;4.07;;;2.33;;
19554;SDS011;9924;50.828;6.440;2022-08-11T12:28:39;5.10;;;2.50;;
19554;SDS011;9924;50.828;6.440;2022-08-11T12:31:05;3.63;;;2.10;;
19554;SDS011;9924;50.828;6.440;2022-08-11T12:33:34;5.95;;;2.22;;
19554;SDS011;9924;50.828;6.440;2022-08-11T12:36:01;3.85;;;2.33;;
19554;SDS011;9924;50.828;6.440;2022-08-11T12:38:28;4.22;;;2.17;;
19554;SDS011;9924;50.828;6.440;2022-08-11T12:40:55;3.97;;;2.25;;
19554;SDS011;9924;50.828;6.440;2022-08-11T12:43:40;5.82;;;2.58;;
19554;SDS011;9924;50.828;6.440;2022-08-11T12:46:28;3.28;;;2.42;;
19554;SDS011;9924;50.828;6.440;2022-08-11T12:48:58;8.75;;;2.40;;
19554;SDS011;9924;50.828;6.440;2022-08-11T12:51:48;3.38;;;2.10;;
19554;SDS011;9924;50.828;6.440;2022-08-11T13:00:14;9.48;;;2.55;;
19554;SDS011;9924;50.828;6.440;2022-08-11T13:03:00;3.83;;;2.50;;
19554;SDS011;9924;50.828;6.440;2022-08-11T13:05:46;2.20;;;2.00;;
19554;SDS011;9924;50.828;6.440;2022-08-11T13:08:13;4.20;;;2.35;;
19554;SDS011;9924;50.828;6.440;2022-08-11T13:10:41;4.60;;;2.38;;
19554;SDS011;9924;50.828;6.440;2022-08-11T13:13:27;2.72;;;2.30;;
19554;SDS011;9924;50.828;6.440;2022-08-11T13:15:53;3.85;;;2.20;;
19554;SDS011;9924;50.828;6.440;2022-08-11T13:18:21;5.38;;;2.40;;
19554;SDS011;9924;50.828;6.440;2022-08-11T13:20:56;3.50;;;2.40;;
19554;SDS011;9924;50.828;6.440;2022-08-11T13:23:22;3.00;;;2.08;;
19554;SDS011;9924;50.828;6.440;2022-08-11T13:25:50;3.50;;;2.28;;
19554;SDS011;9924;50.828;6.440;2022-08-11T13:28:18;5.53;;;2.47;;
19554;SDS011;9924;50.828;6.440;2022-08-11T13:30:45;3.72;;;2.22;;
19554;SDS011;9924;50.828;6.440;2022-08-11T13:33:32;2.90;;;2.22;;
19554;SDS011;9924;50.828;6.440;2022-08-11T13:36:00;3.05;;;2.22;;
19554;SDS011;9924;50.828;6.440;2022-08-11T13:38:27;5.53;;;2.20;;
19554;SDS011;9924;50.828;6.440;2022-08-11T13:40:53;5.68;;;2.38;;
19554;SDS011;9924;50.828;6.440;2022-08-11T13:43:20;4.28;;;2.70;;
19554;SDS011;9924;50.828;6.440;2022-08-11T13:45:48;5.22;;;2.30;;
19554;SDS011;9924;50.828;6.440;2022-08-11T13:48:16;4.45;;;2.42;;
19554;SDS011;9924;50.828;6.440;2022-08-11T13:50:43;3.47;;;2.53;;
19554;SDS011;9924;50.828;6.440;2022-08-11T13:53:29;2.38;;;1.92;;
19554;SDS011;9924;50.828;6.440;2022-08-11T13:55:58;5.72;;;2.10;;
19554;SDS011;9924;50.828;6.440;2022-08-11T13:58:26;2.45;;;2.10;;
19554;SDS011;9924;50.828;6.440;2022-08-11T14:00:52;2.40;;;2.20;;
19554;SDS011;9924;50.828;6.440;2022-08-11T14:03:21;4.03;;;1.90;;
19554;SDS011;9924;50.828;6.440;2022-08-11T14:05:50;3.85;;;2.70;;
19554;SDS011;9924;50.828;6.440;2022-08-11T14:08:23;3.25;;;2.33;;
19554;SDS011;9924;50.828;6.440;2022-08-11T14:10:57;5.68;;;2.53;;
19554;SDS011;9924;50.828;6.440;2022-08-11T14:13:44;6.70;;;2.67;;
19554;SDS011;9924;50.828;6.440;2022-08-11T14:16:21;6.57;;;2.45;;
19554;SDS011;9924;50.828;6.440;2022-08-11T14:18:56;6.68;;;2.47;;
19554;SDS011;9924;50.828;6.440;2022-08-11T14:21:26;3.03;;;2.50;;
19554;SDS011;9924;50.828;6.440;2022-08-11T14:24:12;6.22;;;2.63;;
19554;SDS011;9924;50.828;6.440;2022-08-11T14:26:41;4.38;;;2.42;;
19554;SDS011;9924;50.828;6.440;2022-08-11T14:29:13;4.30;;;2.47;;
19554;SDS011;9924;50.828;6.440;2022-08-11T14:31:52;9.68;;;2.38;;
19554;SDS011;9924;50.828;6.440;2022-08-11T14:34:20;3.35;;;2.03;;
19554;SDS011;9924;50.828;6.440;2022-08-11T14:36:49;3.15;;;2.15;;
19554;SDS011;9924;50.828;6.440;2022-08-11T14:39:18;5.53;;;2.38;;
19554;SDS011;9924;50.828;6.440;2022-08-11T14:41:52;4.45;;;2.47;;
19554;SDS011;9924;50.828;6.440;2022-08-11T14:44:48;4.63;;;2.40;;
19554;SDS011;9924;50.828;6.440;2022-08-11T14:47:40;6.20;;;2.47;;
19554;SDS011;9924;50.828;6.440;2022-08-11T14:50:12;2.60;;;2.05;;
19554;SDS011;9924;50.828;6.440;2022-08-11T14:52:47;3.63;;;2.47;;
19554;SDS011;9924;50.828;6.440;2022-08-11T14:55:17;4.78;;;2.38;;
19554;SDS011;9924;50.828;6.440;2022-08-11T14:58:02;3.88;;;2.42;;
19554;SDS011;9924;50.828;6.440;2022-08-11T15:00:29;4.38;;;2.28;;
19554;SDS011;9924;50.828;6.440;2022-08-11T15:02:56;6.38;;;2.97;;
19554;SDS011;9924;50.828;6.440;2022-08-11T15:08:14;6.28;;;2.30;;
19554;SDS011;9924;50.828;6.440;2022-08-11T15:10:42;3.50;;;2.47;;
19554;SDS011;9924;50.828;6.440;2022-08-11T15:13:09;4.53;;;2.20;;
19554;SDS011;9924;50.828;6.440;2022-08-11T15:15:36;3.42;;;2.00;;
19554;SDS011;9924;50.828;6.440;2022-08-11T15:18:21;4.45;;;2.45;;
19554;SDS011;9924;50.828;6.440;2022-08-11T15:20:48;2.97;;;2.25;;
19554;SDS011;9924;50.828;6.440;2022-08-11T15:23:33;4.60;;;2.40;;
19554;SDS011;9924;50.828;6.440;2022-08-11T15:26:21;3.15;;;2.20;;
19554;SDS011;9924;50.828;6.440;2022-08-11T15:29:19;3.70;;;2.10;;
19554;SDS011;9924;50.828;6.440;2022-08-11T15:32:06;5.53;;;1.98;;
19554;SDS011;9924;50.828;6.440;2022-08-11T15:34:57;3.88;;;2.25;;
19554;SDS011;9924;50.828;6.440;2022-08-11T15:37:43;2.95;;;2.05;;
19554;SDS011;9924;50.828;6.440;2022-08-11T15:40:12;2.80;;;2.50;;
19554;SDS011;9924;50.828;6.440;2022-08-11T15:45:57;4.65;;;2.35;;
19554;SDS011;9924;50.828;6.440;2022-08-11T15:51:00;6.45;;;2.25;;
19554;SDS011;9924;50.828;6.440;2022-08-11T15:53:39;2.33;;;2.10;;
19554;SDS011;9924;50.828;6.440;2022-08-11T15:56:07;4.00;;;2.45;;
19554;SDS011;9924;50.828;6.440;2022-08-11T15:58:37;2.38;;;2.15;;
19554;SDS011;9924;50.828;6.440;2022-08-11T16:01:26;3.90;;;2.40;;
19554;SDS011;9924;50.828;6.440;2022-08-11T16:04:16;3.45;;;2.83;;
19554;SDS011;9924;50.828;6.440;2022-08-11T16:06:56;2.92;;;2.42;;
19554;SDS011;9924;50.828;6.440;2022-08-11T16:11:53;5.50;;;2.65;;
19554;SDS011;9924;50.828;6.440;2022-08-11T16:14:22;5.82;;;2.20;;
19554;SDS011;9924;50.828;6.440;2022-08-11T16:17:09;6.13;;;2.50;;
19554;SDS011;9924;50.828;6.440;2022-08-11T16:19:36;2.45;;;2.20;;
19554;SDS011;9924;50.828;6.440;2022-08-11T16:22:08;2.85;;;2.28;;
19554;SDS011;9924;50.828;6.440;2022-08-11T16:24:37;3.63;;;2.60;;
19554;SDS011;9924;50.828;6.440;2022-08-11T16:27:07;4.20;;;2.08;;
19554;SDS011;9924;50.828;6.440;2022-08-11T16:29:36;3.72;;;2.80;;
19554;SDS011;9924;50.828;6.440;2022-08-11T16:32:06;4.15;;;2.17;;
19554;SDS011;9924;50.828;6.440;2022-08-11T16:34:44;13.05;;;7.35;;
19554;SDS011;9924;50.828;6.440;2022-08-11T16:37:32;4.15;;;2.55;;
19554;SDS011;9924;50.828;6.440;2022-08-11T16:40:18;3.55;;;2.70;;
19554;SDS011;9924;50.828;6.440;2022-08-11T16:42:47;14.23;;;9.20;;
19554;SDS011;9924;50.828;6.440;2022-08-11T16:45:33;4.97;;;2.80;;
19554;SDS011;9924;50.828;6.440;2022-08-11T16:48:19;9.73;;;5.25;;
19554;SDS011;9924;50.828;6.440;2022-08-11T16:50:47;6.20;;;4.55;;
19554;SDS011;9924;50.828;6.440;2022-08-11T16:53:13;6.43;;;4.18;;
19554;SDS011;9924;50.828;6.440;2022-08-11T16:55:41;7.80;;;5.25;;
19554;SDS011;9924;50.828;6.440;2022-08-11T16:58:09;7.93;;;2.80;;
19554;SDS011;9924;50.828;6.440;2022-08-11T17:00:55;3.83;;;2.95;;
19554;SDS011;9924;50.828;6.440;2022-08-11T17:03:22;4.50;;;3.00;;
19554;SDS011;9924;50.828;6.440;2022-08-11T17:06:07;4.40;;;2.72;;
19554;SDS011;9924;50.828;6.440;2022-08-11T17:08:53;3.92;;;2.88;;
19554;SDS011;9924;50.828;6.440;2022-08-11T17:11:49;3.78;;;2.35;;
19554;SDS011;9924;50.828;6.440;2022-08-11T17:14:42;4.72;;;2.35;;
19554;SDS011;9924;50.828;6.440;2022-08-11T17:17:17;2.78;;;2.30;;
19554;SDS011;9924;50.828;6.440;2022-08-11T17:19:51;3.45;;;2.72;;
19554;SDS011;9924;50.828;6.440;2022-08-11T17:22:19;4.95;;;2.88;;
19554;SDS011;9924;50.828;6.440;2022-08-11T17:25:07;3.35;;;2.20;;
19554;SDS011;9924;50.828;6.440;2022-08-11T17:27:34;3.40;;;2.45;;
19554;SDS011;9924;50.828;6.440;2022-08-11T17:30:02;2.40;;;2.20;;
19554;SDS011;9924;50.828;6.440;2022-08-11T17:32:31;5.57;;;2.88;;
19554;SDS011;9924;50.828;6.440;2022-08-11T17:35:22;5.55;;;2.60;;
19554;SDS011;9924;50.828;6.440;2022-08-11T17:40:31;2.42;;;2.22;;
19554;SDS011;9924;50.828;6.440;2022-08-11T17:43:03;2.47;;;2.17;;
19554;SDS011;9924;50.828;6.440;2022-08-11T17:45:49;3.08;;;2.40;;
19554;SDS011;9924;50.828;6.440;2022-08-11T17:48:37;5.32;;;2.78;;
19554;SDS011;9924;50.828;6.440;2022-08-11T17:51:08;3.38;;;2.50;;
19554;SDS011;9924;50.828;6.440;2022-08-11T17:53:39;10.20;;;2.65;;
19554;SDS011;9924;50.828;6.440;2022-08-11T17:56:25;5.32;;;2.53;;
19554;SDS011;9924;50.828;6.440;2022-08-11T17:59:15;3.55;;;2.15;;
19554;SDS011;9924;50.828;6.440;2022-08-11T18:02:02;6.55;;;2.58;;
19554;SDS011;9924;50.828;6.440;2022-08-11T18:04:48;7.13;;;2.50;;
19554;SDS011;9924;50.828;6.440;2022-08-11T18:07:15;5.15;;;2.38;;
19554;SDS011;9924;50.828;6.440;2022-08-11T18:10:03;5.07;;;2.60;;
19554;SDS011;9924;50.828;6.440;2022-08-11T18:12:49;4.35;;;2.47;;
19554;SDS011;9924;50.828;6.440;2022-08-11T18:15:39;5.35;;;2.15;;
19554;SDS011;9924;50.828;6.440;2022-08-11T18:18:25;4.95;;;2.72;;
19554;SDS011;9924;50.828;6.440;2022-08-11T18:21:10;4.00;;;2.35;;
19554;SDS011;9924;50.828;6.440;2022-08-11T18:23:58;2.78;;;2.20;;
19554;SDS011;9924;50.828;6.440;2022-08-11T18:26:46;3.15;;;2.67;;
19554;SDS011;9924;50.828;6.440;2022-08-11T18:29:33;5.80;;;2.60;;
19554;SDS011;9924;50.828;6.440;2022-08-11T18:32:22;3.85;;;2.55;;
19554;SDS011;9924;50.828;6.440;2022-08-11T18:35:07;5.07;;;2.40;;
19554;SDS011;9924;50.828;6.440;2022-08-11T18:37:53;6.82;;;2.72;;
19554;SDS011;9924;50.828;6.440;2022-08-11T18:40:39;8.80;;;2.58;;
19554;SDS011;9924;50.828;6.440;2022-08-11T18:43:26;4.82;;;2.80;;
19554;SDS011;9924;50.828;6.440;2022-08-11T18:46:12;3.63;;;2.90;;
19554;SDS011;9924;50.828;6.440;2022-08-11T18:49:02;10.40;;;2.92;;
19554;SDS011;9924;50.828;6.440;2022-08-11T18:51:58;10.85;;;3.10;;
19554;SDS011;9924;50.828;6.440;2022-08-11T18:54:43;10.25;;;2.97;;
19554;SDS011;9924;50.828;6.440;2022-08-11T18:57:31;16.77;;;3.05;;
19554;SDS011;9924;50.828;6.440;2022-08-11T19:00:19;8.60;;;2.95;;
19554;SDS011;9924;50.828;6.440;2022-08-11T19:03:04;7.65;;;2.90;;
19554;SDS011;9924;50.828;6.440;2022-08-11T19:05:49;3.58;;;3.00;;
19554;SDS011;9924;50.828;6.440;2022-08-11T19:08:41;10.38;;;2.80;;
19554;SDS011;9924;50.828;6.440;2022-08-11T19:11:34;17.98;;;11.13;;
19554;SDS011;9924;50.828;6.440;2022-08-11T19:14:20;7.10;;;4.00;;
19554;SDS011;9924;50.828;6.440;2022-08-11T19:17:07;6.55;;;2.85;;
19554;SDS011;9924;50.828;6.440;2022-08-11T19:19:53;11.73;;;3.42;;
19554;SDS011;9924;50.828;6.440;2022-08-11T19:22:39;5.88;;;2.95;;
19554;SDS011;9924;50.828;6.440;2022-08-11T19:25:24;7.22;;;3.20;;
19554;SDS011;9924;50.828;6.440;2022-08-11T19:28:11;6.00;;;2.95;;
19554;SDS011;9924;50.828;6.440;2022-08-11T19:30:57;12.52;;;3.10;;
19554;SDS011;9924;50.828;6.440;2022-08-11T19:33:43;9.52;;;3.28;;
19554;SDS011;9924;50.828;6.440;2022-08-11T19:36:29;9.05;;;3.20;;
19554;SDS011;9924;50.828;6.440;2022-08-11T19:39:15;8.35;;;3.05;;
19554;SDS011;9924;50.828;6.440;2022-08-11T19:42:03;6.90;;;3.08;;
19554;SDS011;9924;50.828;6.440;2022-08-11T19:44:50;9.75;;;4.13;;
19554;SDS011;9924;50.828;6.440;2022-08-11T19:47:35;16.42;;;4.70;;
19554;SDS011;9924;50.828;6.440;2022-08-11T19:50:20;6.55;;;3.35;;
19554;SDS011;9924;50.828;6.440;2022-08-11T19:53:04;6.68;;;3.58;;
19554;SDS011;9924;50.828;6.440;2022-08-11T19:55:49;9.00;;;3.08;;
19554;SDS011;9924;50.828;6.440;2022-08-11T19:58:36;7.75;;;3.42;;
19554;SDS011;9924;50.828;6.440;2022-08-11T20:01:21;11.80;;;3.50;;
19554;SDS011;9924;50.828;6.440;2022-08-11T20:04:06;11.57;;;4.22;;
19554;SDS011;9924;50.828;6.440;2022-08-11T20:06:50;10.02;;;3.47;;